Time;durP1;ratioP1;P1;durP2;ratioP2;P2;SDS_P1;SDS_P2;PMS_P1;PMS_P2;Temp;Humidity;BMP_temperature;BMP_pressure;BME280_temperature;BME280_humidity;BME280_pressure;Samples;Min_cycle;Max_cycle;Signal;HPM_P1;HPM_P2
2022/11/17 01:40:46;;;;;;;;;;;;;;;;;;6242521;22;19919;-90
2022/11/17 01:43:24;;;;;;;;;;;;;;;;;;6224933;23;20230;-89
2022/11/17 01:45:58;;;;;;;;;;;;;;;;;;6228151;23;19919;-89
2022/11/17 01:48:30;;;;;;;;;;;;;;;;;;6229309;23;19919;-90
2022/11/17 01:50:56;;;;;;;;;;;;;;;;;;6203512;23;20347;-90
2022/11/17 01:53:22;;;;;;;;;;;;;;;;;;6230515;23;19927;-91
2022/11/17 01:55:48;;;;;;;;;;;;;;;;;;6205080;23;19953;-91
2022/11/17 01:58:14;;;;;;;;;;;;;;;;;;6231767;23;19916;-90
2022/11/17 02:00:40;;;;;;;;;;;;;;;;;;6201109;23;19972;-90
2022/11/17 02:03:09;;;;;;;;;;;;;;;;;;6202932;23;19935;-90
2022/11/17 02:05:46;;;;;;;;;;;;;;;;;;6228538;23;20052;-90
2022/11/17 02:08:35;;;;;;;;;;;;;;;;;;;;;
2022/11/17 02:11:13;;;;;;;;;;;;;;;;;;6214844;22;19919;-90
2022/11/17 02:13:55;;;;;;;;;;;;;;;;;;6231224;23;19923;-90
2022/11/17 02:16:27;;;;;;;;;;;;;;;;;;6202447;23;19920;-90
2022/11/17 02:19:07;;;;;;;;;;;;;;;;;;6204798;23;20379;-90
2022/11/17 03:10:11;;;;;;;;;;;;;;;;;;6123152;23;19955;-89
2022/11/17 03:31:41;;;;;;;;;;;;;;;;;;;;;
2022/11/17 03:34:22;;;;;;;;;;;;;;;;;;6136343;23;19959;-88
2022/11/17 03:40:05;;;;;;;;;;;;;;;;;;6103383;23;19956;-88
2022/11/17 03:42:37;;;;;;;;;;;;;;;;;;6135063;23;19999;-88
2022/11/17 03:45:19;;;;;;;;;;;;;;;;;;6178451;23;20252;-88
2022/11/17 03:48:02;;;;;;;;;;;;;;;;;;6179554;23;19919;-88
2022/11/17 03:50:32;;;;;;;;;;;;;;;;;;6203340;23;19923;-88
2022/11/17 03:53:06;;;;;;;;;;;;;;;;;;6179685;23;19919;-87
2022/11/17 03:58:48;;;;;;;;;;;;;;;;;;6203243;23;20408;-88
2022/11/17 04:10:19;;;;;;;;;;;;;;;;;;;;;
2022/11/17 04:31:26;;;;;;;;;;;;;;;;;;6001215;23;19926;-88
2022/11/17 04:34:02;;;;;;;;;;;;;;;;;;;;;
2022/11/17 04:36:46;;;;;;;;;;;;;;;;;;6002563;23;19922;-87
2022/11/17 04:43:04;;;;;;;;;;;;;;;;;;6061574;23;19944;-88
2022/11/17 05:28:54;;;;;;;;;;;;;;;;;;6245699;22;19923;-87
2022/11/17 05:31:29;;;;;;;;;;;;;;;;;;6232683;22;19923;-87
2022/11/17 05:34:08;;;;;;;;;;;;;;;;;;6260373;22;20244;-87
2022/11/17 05:37:05;;;;;;;;;;;;;;;;;;;;;
2022/11/17 05:39:53;;;;;;;;;;;;;;;;;;6247903;22;19919;-87
2022/11/17 06:00:50;;;;;;;;;;;;;;;;;;5878738;24;19998;-87
2022/11/17 06:12:25;;;;;;;;;;;;;;;;;;6005469;23;19949;-87
2022/11/17 06:14:57;;;;;;;;;;;;;;;;;;5971835;23;20332;-90
2022/11/17 06:20:24;;;;;;;;;;;;;;;;;;6253654;22;19916;-90
2022/11/17 06:22:50;;;;;;;;;;;;;;;;;;6214140;22;20292;-89
2022/11/17 06:28:45;;;;;;;;;;;;;;;;;;6174570;23;19923;-87
2022/11/17 06:40:50;;;;;;;;;;;;;;;;;;5942186;24;19919;-87
2022/11/17 06:46:39;;;;;;;;;;;;;;;;;;5930005;24;19995;-88
2022/11/17 06:55:23;;;;;;;;;;;;;;;;;;;;;
2022/11/17 07:04:56;;;;;;;;;;;;;;;;;;;;;
2022/11/17 07:41:49;;;;;;;;;;;;;;;;;;6256971;22;19923;-88
2022/11/17 07:44:14;;;;;;;;;;;;;;;;;;6215743;22;19926;-88
2022/11/17 07:46:40;;;;;;;;;;;;;;;;;;6210770;22;19986;-89
2022/11/17 07:49:06;;;;;;;;;;;;;;;;;;6241727;22;19915;-89
2022/11/17 07:51:32;;;;;;;;;;;;;;;;;;6239867;22;19919;-89
2022/11/17 07:53:58;;;;;;;;;;;;;;;;;;6239675;22;19919;-89
2022/11/17 07:56:25;;;;;;;;;;;;;;;;;;6211786;22;20297;-89
2022/11/17 07:58:51;;;;;;;;;;;;;;;;;;6216313;22;20328;-89
2022/11/17 08:01:20;;;;;;;;;;;;;;;;;;6212812;22;19927;-88
2022/11/17 08:03:46;;;;;;;;;;;;;;;;;;6214246;22;19922;-89
2022/11/17 08:06:12;;;;;;;;;;;;;;;;;;6213154;22;19919;-89
2022/11/17 08:08:38;;;;;;;;;;;;;;;;;;6263826;22;19934;-88
2022/11/17 08:11:04;;;;;;;;;;;;;;;;;;6241253;22;19927;-89
2022/11/17 08:13:30;;;;;;;;;;;;;;;;;;6237733;22;19923;-89
2022/11/17 08:15:56;;;;;;;;;;;;;;;;;;6269262;22;19915;-89
2022/11/17 08:18:22;;;;;;;;;;;;;;;;;;6239774;22;19926;-88
2022/11/17 08:20:48;;;;;;;;;;;;;;;;;;6215524;22;19916;-89
2022/11/17 08:23:14;;;;;;;;;;;;;;;;;;6227379;23;20038;-89
2022/11/17 08:25:40;;;;;;;;;;;;;;;;;;6233178;23;19916;-89
2022/11/17 08:28:06;;;;;;;;;;;;;;;;;;6235843;23;19923;-88
2022/11/17 08:30:34;;;;;;;;;;;;;;;;;;6231775;23;20629;-88
2022/11/17 08:33:00;;;;;;;;;;;;;;;;;;6233740;23;19923;-88
2022/11/17 08:35:26;;;;;;;;;;;;;;;;;;6228900;23;19970;-88
2022/11/17 08:37:52;;;;;;;;;;;;;;;;;;6235301;23;19994;-88
2022/11/17 08:40:18;;;;;;;;;;;;;;;;;;6232193;23;19962;-88
2022/11/17 08:42:44;;;;;;;;;;;;;;;;;;6236362;23;19924;-88
2022/11/17 08:45:10;;;;;;;;;;;;;;;;;;6232422;23;19919;-88
2022/11/17 08:47:36;;;;;;;;;;;;;;;;;;6232688;23;19915;-88
2022/11/17 08:50:02;;;;;;;;;;;;;;;;;;6235434;23;19926;-87
2022/11/17 08:52:28;;;;;;;;;;;;;;;;;;6232342;23;19924;-88
2022/11/17 08:54:54;;;;;;;;;;;;;;;;;;6234661;23;19927;-87
2022/11/17 08:57:23;;;;;;;;;;;;;;;;;;6229912;23;20287;-88
2022/11/17 08:59:49;;;;;;;;;;;;;;;;;;6234854;23;19938;-88
2022/11/17 09:02:15;;;;;;;;;;;;;;;;;;6234384;23;19958;-88
2022/11/17 09:04:41;;;;;;;;;;;;;;;;;;6230089;23;19990;-88
2022/11/17 09:07:07;;;;;;;;;;;;;;;;;;6234690;23;20344;-88
2022/11/17 09:09:33;;;;;;;;;;;;;;;;;;6230419;23;19920;-88
2022/11/17 09:11:59;;;;;;;;;;;;;;;;;;6233048;23;20287;-88
2022/11/17 09:14:25;;;;;;;;;;;;;;;;;;6231122;23;19999;-89
2022/11/17 09:16:51;;;;;;;;;;;;;;;;;;6235771;23;19923;-89
2022/11/17 09:19:17;;;;;;;;;;;;;;;;;;6234181;23;19990;-89
2022/11/17 09:21:43;;;;;;;;;;;;;;;;;;6234216;22;19951;-88
2022/11/17 09:24:09;;;;;;;;;;;;;;;;;;6233120;23;19973;-88
2022/11/17 09:26:39;;;;;;;;;;;;;;;;;;6232428;23;19951;-89
2022/11/17 09:29:05;;;;;;;;;;;;;;;;;;6234978;23;19923;-88
2022/11/17 09:31:31;;;;;;;;;;;;;;;;;;6232639;23;19923;-88
2022/11/17 09:33:57;;;;;;;;;;;;;;;;;;6234609;23;19957;-87
2022/11/17 09:36:23;;;;;;;;;;;;;;;;;;6230235;23;19915;-89
2022/11/17 09:38:49;;;;;;;;;;;;;;;;;;6234899;23;20325;-89
2022/11/17 09:41:15;;;;;;;;;;;;;;;;;;6234062;23;19923;-89
2022/11/17 09:43:41;;;;;;;;;;;;;;;;;;6229902;23;19927;-89
2022/11/17 09:46:07;;;;;;;;;;;;;;;;;;6231018;23;19947;-89
2022/11/17 09:48:33;;;;;;;;;;;;;;;;;;6231591;23;19919;-89
2022/11/17 09:51:02;;;;;;;;;;;;;;;;;;6233700;23;19990;-88
2022/11/17 09:53:28;;;;;;;;;;;;;;;;;;6231946;22;19923;-89
2022/11/17 09:55:54;;;;;;;;;;;;;;;;;;6234646;23;19920;-88
2022/11/17 09:58:20;;;;;;;;;;;;;;;;;;6232695;23;19919;-89
2022/11/17 10:00:54;;;;;;;;;;;;;;;;;;6233847;23;20281;-88
2022/11/17 10:03:41;;;;;;;;;;;;;;;;;;6231994;23;19974;-89
2022/11/17 10:06:12;;;;;;;;;;;;;;;;;;6234728;23;19915;-88
2022/11/17 10:08:38;;;;;;;;;;;;;;;;;;6234742;22;19919;-88
2022/11/17 10:11:30;;;;;;;;;;;;;;;;;;6235403;23;19946;-88
2022/11/17 10:13:53;;;;;;;;;;;;;;;;;;6235116;23;19920;-88
2022/11/17 10:16:19;;;;;;;;;;;;;;;;;;6234467;23;19920;-89
2022/11/17 10:18:45;;;;;;;;;;;;;;;;;;6234763;23;19916;-89
2022/11/17 10:21:11;;;;;;;;;;;;;;;;;;6237000;23;19990;-89
2022/11/17 10:23:37;;;;;;;;;;;;;;;;;;6229805;22;19954;-89
2022/11/17 10:26:03;;;;;;;;;;;;;;;;;;6235810;23;19951;-88
2022/11/17 10:28:29;;;;;;;;;;;;;;;;;;6234157;23;19916;-89
2022/11/17 10:31:02;;;;;;;;;;;;;;;;;;6236160;23;19990;-88
2022/11/17 10:33:28;;;;;;;;;;;;;;;;;;6233634;23;19920;-89
2022/11/17 10:35:54;;;;;;;;;;;;;;;;;;6235908;23;19926;-88
2022/11/17 10:38:23;;;;;;;;;;;;;;;;;;6234908;23;19919;-90
2022/11/17 10:40:49;;;;;;;;;;;;;;;;;;6236471;23;19994;-88
2022/11/17 10:43:16;;;;;;;;;;;;;;;;;;6233895;23;20004;-88
2022/11/17 10:45:45;;;;;;;;;;;;;;;;;;6235272;23;19923;-88
2022/11/17 10:48:11;;;;;;;;;;;;;;;;;;6237018;23;19921;-87
2022/11/17 10:50:37;;;;;;;;;;;;;;;;;;6232352;23;20618;-88
2022/11/17 10:53:06;;;;;;;;;;;;;;;;;;6237185;23;19919;-89
2022/11/17 10:55:34;;;;;;;;;;;;;;;;;;6233039;23;19923;-88
2022/11/17 10:58:00;;;;;;;;;;;;;;;;;;6235964;23;20296;-88
2022/11/17 11:00:29;;;;;;;;;;;;;;;;;;6232138;23;19923;-88
2022/11/17 11:02:58;;;;;;;;;;;;;;;;;;6257982;22;19946;-88
2022/11/17 11:05:24;;;;;;;;;;;;;;;;;;6233608;23;20030;-89
2022/11/17 11:07:52;;;;;;;;;;;;;;;;;;6237001;23;19961;-89
2022/11/17 11:10:18;;;;;;;;;;;;;;;;;;6233687;23;19984;-88
2022/11/17 11:12:44;;;;;;;;;;;;;;;;;;6236441;23;19929;-88
2022/11/17 11:15:10;;;;;;;;;;;;;;;;;;6236144;23;19919;-88
2022/11/17 11:17:36;;;;;;;;;;;;;;;;;;6233347;23;19969;-89
2022/11/17 11:20:02;;;;;;;;;;;;;;;;;;6234324;23;19987;-88
2022/11/17 11:22:28;;;;;;;;;;;;;;;;;;6231399;22;19922;-88
2022/11/17 11:24:55;;;;;;;;;;;;;;;;;;6236712;23;19987;-88
2022/11/17 11:27:20;;;;;;;;;;;;;;;;;;6233115;23;19919;-88
2022/11/17 11:29:46;;;;;;;;;;;;;;;;;;6234422;23;19942;-88
2022/11/17 11:32:13;;;;;;;;;;;;;;;;;;6235398;23;19924;-88
2022/11/17 11:34:39;;;;;;;;;;;;;;;;;;6233521;23;20462;-88
2022/11/17 11:37:07;;;;;;;;;;;;;;;;;;6260574;22;19919;-87
2022/11/17 11:39:33;;;;;;;;;;;;;;;;;;6233726;23;19916;-88
2022/11/17 11:41:59;;;;;;;;;;;;;;;;;;6235177;23;20333;-88
2022/11/17 11:44:25;;;;;;;;;;;;;;;;;;6233077;23;19919;-88
2022/11/17 11:46:51;;;;;;;;;;;;;;;;;;6235857;23;19990;-89
2022/11/17 11:49:20;;;;;;;;;;;;;;;;;;6260127;22;19920;-89
2022/11/17 11:51:46;;;;;;;;;;;;;;;;;;6236808;22;19961;-89
2022/11/17 11:54:12;;;;;;;;;;;;;;;;;;6238766;22;19929;-88
2022/11/17 11:56:38;;;;;;;;;;;;;;;;;;6257630;22;20381;-88
2022/11/17 11:59:06;;;;;;;;;;;;;;;;;;6260073;22;19923;-88
2022/11/17 12:01:32;;;;;;;;;;;;;;;;;;6231360;23;19923;-87
2022/11/17 12:04:01;;;;;;;;;;;;;;;;;;6232402;23;19916;-88
2022/11/17 12:06:40;;;;;;;;;;;;;;;;;;6257005;22;20305;-89
2022/11/17 12:09:06;;;;;;;;;;;;;;;;;;6234922;23;19925;-89
2022/11/17 12:14:19;;;;;;;;;;;;;;;;;;6234387;23;20307;-89
2022/11/17 12:16:45;;;;;;;;;;;;;;;;;;6236337;23;19916;-89
2022/11/17 12:19:11;;;;;;;;;;;;;;;;;;6233727;23;19955;-88
2022/11/17 12:21:37;;;;;;;;;;;;;;;;;;6232462;22;20809;-89
2022/11/17 12:24:03;;;;;;;;;;;;;;;;;;6235902;23;20230;-89
2022/11/17 12:26:29;;;;;;;;;;;;;;;;;;6233947;23;19922;-88
2022/11/17 12:28:55;;;;;;;;;;;;;;;;;;6235870;23;20379;-88
2022/11/17 12:31:21;;;;;;;;;;;;;;;;;;6230411;23;19998;-89
2022/11/17 12:33:50;;;;;;;;;;;;;;;;;;6233139;23;19920;-87
2022/11/17 12:36:23;;;;;;;;;;;;;;;;;;6232114;23;19920;-88
2022/11/17 12:38:49;;;;;;;;;;;;;;;;;;6231554;23;19998;-88
2022/11/17 12:41:15;;;;;;;;;;;;;;;;;;6233819;23;19958;-88
2022/11/17 12:43:41;;;;;;;;;;;;;;;;;;6231384;23;20275;-88
2022/11/17 12:46:07;;;;;;;;;;;;;;;;;;6234212;23;20034;-88
2022/11/17 12:48:33;;;;;;;;;;;;;;;;;;6232993;23;20037;-88
2022/11/17 12:50:59;;;;;;;;;;;;;;;;;;6232705;23;19919;-88
2022/11/17 12:53:25;;;;;;;;;;;;;;;;;;6229828;23;19927;-89
2022/11/17 12:55:51;;;;;;;;;;;;;;;;;;6234427;23;19966;-89
2022/11/17 12:58:17;;;;;;;;;;;;;;;;;;6260759;22;19919;-89
2022/11/17 13:00:43;;;;;;;;;;;;;;;;;;6232694;23;19919;-89
2022/11/17 13:03:09;;;;;;;;;;;;;;;;;;6230371;23;19951;-88
2022/11/17 13:05:35;;;;;;;;;;;;;;;;;;6231707;23;20315;-88
2022/11/17 13:08:01;;;;;;;;;;;;;;;;;;6231286;23;19920;-88
2022/11/17 13:10:28;;;;;;;;;;;;;;;;;;6231461;23;20332;-89
2022/11/17 13:12:54;;;;;;;;;;;;;;;;;;6234351;23;20337;-89
2022/11/17 13:15:20;;;;;;;;;;;;;;;;;;6230124;23;19916;-89
2022/11/17 13:17:46;;;;;;;;;;;;;;;;;;6231835;23;19920;-89
2022/11/17 13:20:12;;;;;;;;;;;;;;;;;;6234217;23;19947;-89
2022/11/17 13:22:38;;;;;;;;;;;;;;;;;;6230359;22;19926;-89
2022/11/17 13:25:04;;;;;;;;;;;;;;;;;;6235629;23;20398;-89
2022/11/17 13:27:30;;;;;;;;;;;;;;;;;;6231210;23;19919;-88
2022/11/17 13:29:55;;;;;;;;;;;;;;;;;;6233486;23;19927;-90
2022/11/17 13:32:22;;;;;;;;;;;;;;;;;;6231800;23;19932;-89
2022/11/17 13:34:48;;;;;;;;;;;;;;;;;;6227202;23;20069;-90
2022/11/17 13:37:14;;;;;;;;;;;;;;;;;;6225964;23;20010;-88
2022/11/17 13:39:40;;;;;;;;;;;;;;;;;;6230354;23;20284;-89
2022/11/17 13:42:06;;;;;;;;;;;;;;;;;;6233403;23;19927;-89
2022/11/17 13:44:32;;;;;;;;;;;;;;;;;;6233320;23;20363;-90
2022/11/17 13:46:58;;;;;;;;;;;;;;;;;;6236094;23;20229;-89
2022/11/17 13:49:24;;;;;;;;;;;;;;;;;;6232529;23;19924;-88
2022/11/17 13:51:50;;;;;;;;;;;;;;;;;;6236685;23;19923;-89
2022/11/17 13:54:16;;;;;;;;;;;;;;;;;;6236133;23;19974;-89
2022/11/17 13:56:45;;;;;;;;;;;;;;;;;;6231221;23;19920;-90
2022/11/17 13:59:11;;;;;;;;;;;;;;;;;;6261621;22;19916;-90
2022/11/17 14:01:37;;;;;;;;;;;;;;;;;;6232081;23;20799;-90
2022/11/17 14:04:03;;;;;;;;;;;;;;;;;;6235465;23;19993;-89
2022/11/17 14:06:29;;;;;;;;;;;;;;;;;;6232360;23;20358;-89
2022/11/17 14:08:55;;;;;;;;;;;;;;;;;;6235335;23;19916;-89
2022/11/17 14:11:21;;;;;;;;;;;;;;;;;;6234049;23;19923;-90
2022/11/17 14:13:51;;;;;;;;;;;;;;;;;;6234750;23;19966;-89
2022/11/17 14:16:20;;;;;;;;;;;;;;;;;;6233555;23;20313;-90
2022/11/17 14:18:46;;;;;;;;;;;;;;;;;;6231495;23;19920;-89
2022/11/17 14:21:12;;;;;;;;;;;;;;;;;;6232883;23;19916;-89
2022/11/17 14:23:38;;;;;;;;;;;;;;;;;;6231914;22;19927;-89
2022/11/17 14:26:04;;;;;;;;;;;;;;;;;;6236436;23;19923;-91
2022/11/17 14:28:39;;;;;;;;;;;;;;;;;;6232099;23;19986;-90
2022/11/17 14:31:05;;;;;;;;;;;;;;;;;;6233797;23;19951;-90
2022/11/17 14:36:22;;;;;;;;;;;;;;;;;;6180200;23;19926;-91
2022/11/17 14:38:51;;;;;;;;;;;;;;;;;;6234472;23;19920;-90
2022/11/17 14:41:22;;;;;;;;;;;;;;;;;;6231389;23;20373;-90
2022/11/17 14:43:50;;;;;;;;;;;;;;;;;;6234316;23;20333;-90
2022/11/17 14:46:16;;;;;;;;;;;;;;;;;;6233796;23;20059;-90
2022/11/17 14:51:23;;;;;;;;;;;;;;;;;;6266329;22;19927;-90
2022/11/17 14:54:03;;;;;;;;;;;;;;;;;;6211903;22;19915;-91
2022/11/17 14:56:33;;;;;;;;;;;;;;;;;;6237753;22;19915;-92
2022/11/17 14:59:09;;;;;;;;;;;;;;;;;;6237591;22;20386;-92
2022/11/17 15:01:53;;;;;;;;;;;;;;;;;;6236083;22;19927;-93
2022/11/17 15:04:28;;;;;;;;;;;;;;;;;;6233283;22;19919;-93
2022/11/17 15:07:00;;;;;;;;;;;;;;;;;;6233020;22;19923;-91
2022/11/17 15:09:29;;;;;;;;;;;;;;;;;;6235113;22;19926;-92
2022/11/17 15:12:01;;;;;;;;;;;;;;;;;;6236399;22;20406;-91
2022/11/17 15:17:24;;;;;;;;;;;;;;;;;;6233033;22;19980;-91
2022/11/17 15:19:54;;;;;;;;;;;;;;;;;;6234366;22;19972;-91
2022/11/17 15:22:26;;;;;;;;;;;;;;;;;;6227615;22;20350;-91
2022/11/17 15:24:52;;;;;;;;;;;;;;;;;;6228404;22;19926;-92
2022/11/17 15:27:21;;;;;;;;;;;;;;;;;;6229775;22;19958;-91
2022/11/17 15:30:05;;;;;;;;;;;;;;;;;;6223804;22;20305;-91
2022/11/17 15:32:40;;;;;;;;;;;;;;;;;;6225762;22;19969;-91
2022/11/17 15:50:47;;;;;;;;;;;;;;;;;;;;;
2022/11/17 15:54:09;;;;;;;;;;;;;;;;;;6117267;23;19925;-91
2022/11/17 16:00:44;;;;;;;;;;;;;;;;;;6027725;23;19932;-91
2022/11/17 16:03:13;;;;;;;;;;;;;;;;;;6077988;23;19920;-91
2022/11/17 16:09:07;;;;;;;;;;;;;;;;;;5987372;23;19961;-92
2022/11/17 16:11:36;;;;;;;;;;;;;;;;;;5971496;23;19922;-90
2022/11/17 16:14:20;;;;;;;;;;;;;;;;;;5997186;23;20374;-91
2022/11/17 16:22:54;;;;;;;;;;;;;;;;;;6025798;23;20363;-91
2022/11/17 16:25:56;;;;;;;;;;;;;;;;;;6074901;23;20196;-91
2022/11/17 16:28:52;;;;;;;;;;;;;;;;;;6050805;23;20416;-90
2022/11/17 16:31:51;;;;;;;;;;;;;;;;;;;;;
2022/11/17 16:38:05;;;;;;;;;;;;;;;;;;6011090;23;19922;-91
2022/11/17 16:40:41;;;;;;;;;;;;;;;;;;6044596;23;20030;-91
2022/11/17 16:46:28;;;;;;;;;;;;;;;;;;;;;
2022/11/17 16:52:15;;;;;;;;;;;;;;;;;;;;;
2022/11/17 16:54:50;;;;;;;;;;;;;;;;;;6136085;23;20305;-91
2022/11/17 16:57:44;;;;;;;;;;;;;;;;;;;;;
2022/11/17 17:00:54;;;;;;;;;;;;;;;;;;;;;
2022/11/17 17:03:50;;;;;;;;;;;;;;;;;;6122331;23;20392;-91
2022/11/17 17:06:16;;;;;;;;;;;;;;;;;;6088777;23;19920;-90
2022/11/17 17:08:43;;;;;;;;;;;;;;;;;;6142763;23;20249;-91
2022/11/17 17:11:09;;;;;;;;;;;;;;;;;;6141705;23;20552;-91
2022/11/17 17:13:37;;;;;;;;;;;;;;;;;;6142635;23;19923;-91
2022/11/17 17:16:07;;;;;;;;;;;;;;;;;;6140835;23;20277;-91
2022/11/17 17:18:33;;;;;;;;;;;;;;;;;;6136041;23;19921;-91
2022/11/17 17:21:02;;;;;;;;;;;;;;;;;;6144157;23;19917;-91
2022/11/17 17:23:28;;;;;;;;;;;;;;;;;;6137385;23;19935;-90
2022/11/17 17:25:54;;;;;;;;;;;;;;;;;;6179448;22;19919;-91
2022/11/17 17:28:20;;;;;;;;;;;;;;;;;;6229510;22;19923;-91
2022/11/17 17:30:48;;;;;;;;;;;;;;;;;;6235108;22;19933;-90
2022/11/17 17:33:14;;;;;;;;;;;;;;;;;;6234592;22;19923;-90
2022/11/17 17:35:40;;;;;;;;;;;;;;;;;;6230083;22;19969;-91
2022/11/17 17:38:12;;;;;;;;;;;;;;;;;;6253270;22;20312;-91
2022/11/17 17:40:38;;;;;;;;;;;;;;;;;;6231978;22;20113;-91
2022/11/17 17:43:04;;;;;;;;;;;;;;;;;;6235651;22;20319;-90
2022/11/17 17:45:29;;;;;;;;;;;;;;;;;;6232494;22;19915;-91
2022/11/17 17:47:55;;;;;;;;;;;;;;;;;;6231299;22;19919;-91
2022/11/17 17:50:22;;;;;;;;;;;;;;;;;;6232037;22;19919;-91
2022/11/17 17:52:48;;;;;;;;;;;;;;;;;;6227502;23;19924;-91
2022/11/17 17:55:14;;;;;;;;;;;;;;;;;;6229517;22;20335;-91
2022/11/17 17:57:40;;;;;;;;;;;;;;;;;;6227214;23;20343;-92
2022/11/17 18:00:06;;;;;;;;;;;;;;;;;;6227919;23;19959;-91
2022/11/17 18:02:32;;;;;;;;;;;;;;;;;;6225513;23;19990;-91
2022/11/17 18:04:58;;;;;;;;;;;;;;;;;;6227500;23;19993;-91
2022/11/17 18:07:24;;;;;;;;;;;;;;;;;;6224347;23;19919;-91
2022/11/17 18:09:50;;;;;;;;;;;;;;;;;;6224812;23;19930;-91
2022/11/17 18:12:35;;;;;;;;;;;;;;;;;;6225568;23;19923;-91
2022/11/17 18:15:01;;;;;;;;;;;;;;;;;;6225658;23;20676;-91
2022/11/17 18:17:27;;;;;;;;;;;;;;;;;;6225042;23;19924;-91
2022/11/17 18:19:53;;;;;;;;;;;;;;;;;;6229172;23;19924;-90
2022/11/17 18:22:22;;;;;;;;;;;;;;;;;;6221240;23;20288;-90
2022/11/17 18:24:48;;;;;;;;;;;;;;;;;;6226056;23;19959;-91
2022/11/17 18:27:14;;;;;;;;;;;;;;;;;;6225943;23;19958;-90
2022/11/17 18:29:40;;;;;;;;;;;;;;;;;;6218788;23;19963;-90
2022/11/17 18:32:06;;;;;;;;;;;;;;;;;;6226483;23;19964;-90
2022/11/17 18:34:35;;;;;;;;;;;;;;;;;;6227427;23;19919;-90
2022/11/17 18:37:01;;;;;;;;;;;;;;;;;;6231084;23;19919;-90
2022/11/17 18:39:30;;;;;;;;;;;;;;;;;;6228446;23;19927;-90
2022/11/17 18:41:56;;;;;;;;;;;;;;;;;;6230910;23;19955;-90
2022/11/17 18:44:22;;;;;;;;;;;;;;;;;;6228857;23;19915;-89
2022/11/17 18:47:04;;;;;;;;;;;;;;;;;;;;;
2022/11/17 18:49:44;;;;;;;;;;;;;;;;;;6240549;23;20376;-90
2022/11/17 18:52:18;;;;;;;;;;;;;;;;;;6240173;23;22317;-90
2022/11/17 18:54:44;;;;;;;;;;;;;;;;;;6229870;22;20282;-91
2022/11/17 18:57:10;;;;;;;;;;;;;;;;;;6227893;23;19919;-90
2022/11/17 18:59:36;;;;;;;;;;;;;;;;;;6224410;23;19919;-90
2022/11/17 19:02:02;;;;;;;;;;;;;;;;;;6226422;23;19919;-91
2022/11/17 19:04:31;;;;;;;;;;;;;;;;;;6224277;23;19923;-90
2022/11/17 19:07:02;;;;;;;;;;;;;;;;;;6227127;23;20270;-90
2022/11/17 19:09:31;;;;;;;;;;;;;;;;;;6223939;23;19926;-90
2022/11/17 19:12:09;;;;;;;;;;;;;;;;;;6228372;23;19939;-90
2022/11/17 19:17:30;;;;;;;;;;;;;;;;;;6221313;23;19954;-90
2022/11/17 19:19:59;;;;;;;;;;;;;;;;;;6231942;23;19974;-90
2022/11/17 19:22:38;;;;;;;;;;;;;;;;;;;;;
2022/11/17 19:25:04;;;;;;;;;;;;;;;;;;6252694;22;20589;-91
2022/11/17 19:27:30;;;;;;;;;;;;;;;;;;6226716;23;20283;-90
2022/11/17 19:29:59;;;;;;;;;;;;;;;;;;6229155;23;19916;-90
2022/11/17 19:32:25;;;;;;;;;;;;;;;;;;6224114;23;19985;-90
2022/11/17 19:34:54;;;;;;;;;;;;;;;;;;6226931;23;19920;-90
2022/11/17 19:37:26;;;;;;;;;;;;;;;;;;6226789;23;19920;-91
2022/11/17 19:39:52;;;;;;;;;;;;;;;;;;6226361;23;19942;-90
2022/11/17 19:42:28;;;;;;;;;;;;;;;;;;6226252;23;19916;-91
2022/11/17 19:48:09;;;;;;;;;;;;;;;;;;6189856;23;20260;-90
2022/11/17 19:50:35;;;;;;;;;;;;;;;;;;6224968;23;19920;-91
2022/11/17 19:53:01;;;;;;;;;;;;;;;;;;6228204;23;19935;-90
2022/11/17 19:55:27;;;;;;;;;;;;;;;;;;6222518;22;19919;-90
2022/11/17 19:57:53;;;;;;;;;;;;;;;;;;6226146;23;19920;-90
2022/11/17 20:00:19;;;;;;;;;;;;;;;;;;6223435;23;19930;-90
2022/11/17 20:02:47;;;;;;;;;;;;;;;;;;6227124;23;20404;-90
2022/11/17 20:05:13;;;;;;;;;;;;;;;;;;6225473;23;19919;-89
2022/11/17 20:07:39;;;;;;;;;;;;;;;;;;6222157;23;19920;-91
2022/11/17 20:10:05;;;;;;;;;;;;;;;;;;6226787;23;19986;-91
2022/11/17 20:12:31;;;;;;;;;;;;;;;;;;6227556;23;19973;-90
2022/11/17 20:14:57;;;;;;;;;;;;;;;;;;6227631;23;19923;-91
2022/11/17 20:17:23;;;;;;;;;;;;;;;;;;6227319;23;19916;-90
2022/11/17 20:19:49;;;;;;;;;;;;;;;;;;6230381;23;19915;-90
2022/11/17 20:22:16;;;;;;;;;;;;;;;;;;6227310;23;19962;-90
2022/11/17 20:24:42;;;;;;;;;;;;;;;;;;6225352;23;19916;-90
2022/11/17 20:27:34;;;;;;;;;;;;;;;;;;;;;
2022/11/17 20:30:43;;;;;;;;;;;;;;;;;;6113092;23;20509;-90
2022/11/17 20:33:21;;;;;;;;;;;;;;;;;;6138189;23;19921;-90
2022/11/17 20:35:55;;;;;;;;;;;;;;;;;;6141334;23;19921;-89
2022/11/17 20:38:24;;;;;;;;;;;;;;;;;;6136961;23;19920;-90
2022/11/17 20:40:53;;;;;;;;;;;;;;;;;;6141048;23;19927;-91
2022/11/17 20:43:22;;;;;;;;;;;;;;;;;;6139997;23;19926;-91
2022/11/17 20:45:50;;;;;;;;;;;;;;;;;;6143872;23;20411;-90
2022/11/17 20:48:21;;;;;;;;;;;;;;;;;;6139995;23;19916;-90
2022/11/17 20:50:47;;;;;;;;;;;;;;;;;;6141295;23;19932;-90
2022/11/17 20:53:22;;;;;;;;;;;;;;;;;;6142177;23;19924;-91
2022/11/17 20:55:51;;;;;;;;;;;;;;;;;;6135775;23;19920;-90
2022/11/17 20:58:20;;;;;;;;;;;;;;;;;;6138074;23;19920;-90
2022/11/17 21:00:48;;;;;;;;;;;;;;;;;;6141514;23;20371;-91
2022/11/17 21:03:14;;;;;;;;;;;;;;;;;;6170128;23;19966;-90
2022/11/17 21:05:43;;;;;;;;;;;;;;;;;;6227435;23;19958;-90
2022/11/17 21:08:09;;;;;;;;;;;;;;;;;;6232049;23;19919;-90
2022/11/17 21:10:36;;;;;;;;;;;;;;;;;;6227908;23;19926;-90
2022/11/17 21:13:05;;;;;;;;;;;;;;;;;;6230422;23;20376;-91
2022/11/17 21:15:31;;;;;;;;;;;;;;;;;;6228487;23;19915;-90
2022/11/17 21:20:41;;;;;;;;;;;;;;;;;;6230266;23;19926;-90
2022/11/17 21:23:10;;;;;;;;;;;;;;;;;;6234684;23;19998;-91
2022/11/17 21:25:37;;;;;;;;;;;;;;;;;;6231645;23;19916;-90
2022/11/17 21:28:03;;;;;;;;;;;;;;;;;;6235310;23;19916;-90
2022/11/17 21:30:29;;;;;;;;;;;;;;;;;;6230158;23;19942;-89
2022/11/17 21:32:55;;;;;;;;;;;;;;;;;;6228981;23;20328;-90
2022/11/17 21:35:21;;;;;;;;;;;;;;;;;;6251270;22;19919;-90
2022/11/17 21:37:47;;;;;;;;;;;;;;;;;;6231612;23;19915;-90
2022/11/17 21:40:13;;;;;;;;;;;;;;;;;;6229358;23;19920;-89
2022/11/17 21:42:39;;;;;;;;;;;;;;;;;;6250370;22;20277;-91
2022/11/17 21:45:05;;;;;;;;;;;;;;;;;;6228551;23;20244;-90
2022/11/17 21:47:31;;;;;;;;;;;;;;;;;;6225789;23;20272;-90
2022/11/17 21:49:57;;;;;;;;;;;;;;;;;;6227615;23;19946;-90
2022/11/17 21:52:23;;;;;;;;;;;;;;;;;;6226093;23;20237;-90
2022/11/17 21:54:49;;;;;;;;;;;;;;;;;;6225991;22;19916;-91
2022/11/17 21:57:15;;;;;;;;;;;;;;;;;;6228701;23;20053;-90
2022/11/17 21:59:41;;;;;;;;;;;;;;;;;;6224806;23;19920;-91
2022/11/17 22:02:07;;;;;;;;;;;;;;;;;;6225359;23;20336;-90
2022/11/17 22:04:33;;;;;;;;;;;;;;;;;;6224586;23;19950;-90
2022/11/17 22:06:59;;;;;;;;;;;;;;;;;;6228107;23;19997;-90
2022/11/17 22:09:25;;;;;;;;;;;;;;;;;;6227124;23;20622;-90
2022/11/17 22:11:51;;;;;;;;;;;;;;;;;;6231261;23;20253;-90
2022/11/17 22:14:20;;;;;;;;;;;;;;;;;;6235127;23;19915;-90
2022/11/17 22:16:46;;;;;;;;;;;;;;;;;;6235641;23;19965;-90
2022/11/17 22:19:12;;;;;;;;;;;;;;;;;;6235860;23;19919;-90
2022/11/17 22:21:38;;;;;;;;;;;;;;;;;;6233271;23;20331;-90
2022/11/17 22:24:04;;;;;;;;;;;;;;;;;;6233689;23;19954;-90
2022/11/17 22:26:37;;;;;;;;;;;;;;;;;;6223774;23;19951;-90
2022/11/17 22:29:03;;;;;;;;;;;;;;;;;;6228190;23;19919;-90
2022/11/17 22:31:29;;;;;;;;;;;;;;;;;;6225305;23;19920;-89
2022/11/17 22:33:55;;;;;;;;;;;;;;;;;;6227682;23;19920;-89
2022/11/17 22:36:21;;;;;;;;;;;;;;;;;;6247722;22;19919;-90
2022/11/17 22:38:47;;;;;;;;;;;;;;;;;;6225980;23;19922;-90
2022/11/17 22:41:13;;;;;;;;;;;;;;;;;;6226157;23;19919;-89
2022/11/17 22:43:39;;;;;;;;;;;;;;;;;;6223414;23;20230;-90
2022/11/17 22:46:05;;;;;;;;;;;;;;;;;;6225609;23;19926;-90
2022/11/17 22:48:31;;;;;;;;;;;;;;;;;;6225936;23;19969;-90
2022/11/17 22:50:57;;;;;;;;;;;;;;;;;;6226707;23;19974;-90
2022/11/17 22:53:23;;;;;;;;;;;;;;;;;;6222595;23;19951;-90
2022/11/17 22:55:49;;;;;;;;;;;;;;;;;;6227472;22;19946;-89
2022/11/17 22:58:15;;;;;;;;;;;;;;;;;;6227272;23;19946;-90
2022/11/17 23:00:41;;;;;;;;;;;;;;;;;;6225804;23;19919;-90
2022/11/17 23:03:07;;;;;;;;;;;;;;;;;;6226959;23;20411;-90
2022/11/17 23:05:33;;;;;;;;;;;;;;;;;;6225447;23;19991;-90
2022/11/17 23:08:00;;;;;;;;;;;;;;;;;;6227617;23;20438;-90
2022/11/17 23:10:26;;;;;;;;;;;;;;;;;;6225702;23;19919;-90
2022/11/17 23:12:52;;;;;;;;;;;;;;;;;;6228667;23;20021;-90
2022/11/17 23:15:18;;;;;;;;;;;;;;;;;;6228736;23;19935;-90
2022/11/17 23:17:44;;;;;;;;;;;;;;;;;;6223173;23;20329;-90
2022/11/17 23:20:09;;;;;;;;;;;;;;;;;;6225029;23;19926;-90
2022/11/17 23:22:35;;;;;;;;;;;;;;;;;;6227397;23;20310;-90
2022/11/17 23:25:01;;;;;;;;;;;;;;;;;;6225749;23;19990;-90
2022/11/17 23:27:27;;;;;;;;;;;;;;;;;;6230809;23;19920;-91
2022/11/17 23:29:53;;;;;;;;;;;;;;;;;;6234970;23;19919;-91
2022/11/17 23:32:19;;;;;;;;;;;;;;;;;;6234805;23;19923;-90
2022/11/17 23:34:45;;;;;;;;;;;;;;;;;;6232232;23;19919;-90
2022/11/17 23:37:11;;;;;;;;;;;;;;;;;;6232246;23;19920;-90
2022/11/17 23:39:37;;;;;;;;;;;;;;;;;;6232455;23;20300;-90
2022/11/17 23:42:03;;;;;;;;;;;;;;;;;;6230672;23;19982;-90
2022/11/17 23:44:29;;;;;;;;;;;;;;;;;;6230504;23;20352;-90
2022/11/17 23:46:55;;;;;;;;;;;;;;;;;;6231775;23;19919;-90
2022/11/17 23:49:21;;;;;;;;;;;;;;;;;;6229481;23;19951;-92